createdAt,value
2022-12-31T00:02:36.120Z,99424.22
2022-12-31T00:05:37.881Z,99417.97
2022-12-31T00:08:39.320Z,99428.13
2022-12-31T00:11:40.837Z,99426.28
2022-12-31T00:14:42.282Z,99434.59
2022-12-31T00:17:43.850Z,99417.50
2022-12-31T00:20:45.308Z,99422.06
2022-12-31T00:23:47.738Z,99431.22
2022-12-31T00:26:49.240Z,99429.53
2022-12-31T00:29:50.709Z,99426.84
2022-12-31T00:32:52.882Z,99429.72
2022-12-31T00:35:54.341Z,99419.91
2022-12-31T00:38:57.415Z,99428.88
2022-12-31T00:41:58.955Z,99435.50
2022-12-31T00:45:00.391Z,99428.19
2022-12-31T00:48:01.833Z,99431.94
2022-12-31T00:51:05.140Z,99449.03
2022-12-31T00:54:06.682Z,99439.22
2022-12-31T00:57:08.176Z,99433.78
2022-12-31T01:00:10.551Z,99441.91
2022-12-31T01:03:12.088Z,99428.56
2022-12-31T01:06:13.972Z,99440.41
2022-12-31T01:09:16.690Z,99439.41
2022-12-31T01:12:18.187Z,99434.16
2022-12-31T01:15:19.626Z,99444.16
2022-12-31T01:18:21.094Z,99443.31
2022-12-31T01:21:22.829Z,99451.44
2022-12-31T01:24:24.629Z,99447.91
2022-12-31T01:27:26.169Z,99444.31
2022-12-31T01:30:27.673Z,99437.22
2022-12-31T01:33:29.195Z,99439.94
2022-12-31T01:36:32.741Z,99447.03
2022-12-31T01:39:34.218Z,99434.69
2022-12-31T01:42:35.727Z,99438.44
2022-12-31T01:45:37.251Z,99437.38
2022-12-31T01:48:38.862Z,99443.69
2022-12-31T01:51:42.738Z,99444.50
2022-12-31T01:54:48.841Z,99457.22
2022-12-31T01:57:55.888Z,99447.38
2022-12-31T02:00:58.757Z,99442.81
2022-12-31T02:04:06.943Z,99440.09
2022-12-31T02:07:10.216Z,99432.84
2022-12-31T02:10:11.704Z,99430.13
2022-12-31T02:13:14.920Z,99414.88
2022-12-31T02:16:55.561Z,99415.72
2022-12-31T02:20:12.336Z,99416.59
2022-12-31T02:23:13.773Z,99405.94
2022-12-31T02:26:36.885Z,99396.75
2022-12-31T02:29:59.428Z,99407.59
2022-12-31T02:33:28.160Z,99402.19
2022-12-31T02:36:35.925Z,99408.63
2022-12-31T02:39:38.241Z,99405.09
2022-12-31T02:42:39.758Z,99407.13
2022-12-31T02:45:45.125Z,99405.09
2022-12-31T02:49:12.853Z,99404.06
2022-12-31T02:52:20.230Z,99404.41
2022-12-31T02:55:33.803Z,99392.38
2022-12-31T02:59:00.221Z,99390.88
2022-12-31T03:02:15.017Z,99387.13
2022-12-31T03:05:21.156Z,99384.44
2022-12-31T03:08:24.295Z,99367.34
2022-12-31T03:11:44.251Z,99366.50
2022-12-31T03:14:45.875Z,99352.13
2022-12-31T03:17:58.881Z,99345.66
2022-12-31T03:21:18.991Z,99365.66
2022-12-31T03:24:41.891Z,99344.00
2022-12-31T03:27:44.922Z,99354.84
2022-12-31T03:30:49.284Z,99347.53
2022-12-31T03:33:50.794Z,99346.03
2022-12-31T03:36:52.270Z,99324.38
2022-12-31T03:39:53.754Z,99329.78
2022-12-31T03:42:55.662Z,99308.97
2022-12-31T03:45:59.746Z,99317.09
2022-12-31T03:49:01.877Z,99331.66
2022-12-31T03:52:03.538Z,99327.91
2022-12-31T03:55:06.484Z,99302.03
2022-12-31T03:58:08.032Z,99320.00
2022-12-31T04:01:09.624Z,99302.03
2022-12-31T04:04:11.180Z,99296.63
2022-12-31T04:07:12.671Z,99292.03
2022-12-31T04:10:16.597Z,99300.16
2022-12-31T04:13:18.070Z,99288.50
2022-12-31T04:16:19.637Z,99292.03
2022-12-31T04:19:21.150Z,99275.78
2022-12-31T04:22:22.788Z,99283.09
2022-12-31T04:25:24.289Z,99268.72
2022-12-31T04:28:25.836Z,99263.28
2022-12-31T04:31:27.359Z,99261.63
2022-12-31T04:34:28.833Z,99267.03
2022-12-31T04:37:30.343Z,99272.47
2022-12-31T04:40:32.161Z,99271.41
2022-12-31T04:43:33.649Z,99262.47
2022-12-31T04:46:35.934Z,99270.59
2022-12-31T04:49:37.420Z,99274.13
2022-12-31T04:52:42.917Z,99273.28
2022-12-31T04:55:45.423Z,99292.25
2022-12-31T04:58:47.267Z,99338.28
2022-12-31T05:01:48.968Z,99358.06
2022-12-31T05:04:50.599Z,99369.94
2022-12-31T05:07:52.565Z,99361.81
2022-12-31T05:10:54.171Z,99363.50
2022-12-31T05:13:57.342Z,99355.53
2022-12-31T05:16:59.296Z,99352.81
2022-12-31T05:20:00.868Z,99358.25
2022-12-31T05:23:02.442Z,99359.09
2022-12-31T05:26:04.118Z,99362.66
2022-12-31T05:29:05.641Z,99364.53
2022-12-31T05:32:07.144Z,99369.94
2022-12-31T05:35:09.099Z,99371.63
2022-12-31T05:38:10.960Z,99373.66
2022-12-31T05:41:12.467Z,99398.84
2022-12-31T05:44:14.185Z,99402.59
2022-12-31T05:47:16.077Z,99408.84
2022-12-31T05:50:17.797Z,99410.72
2022-12-31T05:53:19.373Z,99412.59
2022-12-31T05:56:20.850Z,99399.22
2022-12-31T05:59:22.416Z,99395.50
2022-12-31T06:02:24.298Z,99382.13
2022-12-31T06:05:26.416Z,99383.19
2022-12-31T06:08:28.295Z,99386.53
2022-12-31T06:11:29.892Z,99376.88
2022-12-31T06:14:31.590Z,99373.19
2022-12-31T06:17:33.087Z,99362.34
2022-12-31T06:20:37.922Z,99371.31
2022-12-31T06:23:40.712Z,99374.19
2022-12-31T06:26:42.225Z,99369.81
2022-12-31T06:29:45.609Z,99386.88
2022-12-31T06:32:47.275Z,99377.94
2022-12-31T06:35:48.779Z,99382.50
2022-12-31T06:38:50.747Z,99374.38
2022-12-31T06:41:52.219Z,99387.91
2022-12-31T06:44:53.704Z,99394.34
2022-12-31T06:47:55.207Z,99390.78
2022-12-31T06:50:57.214Z,99376.25
2022-12-31T06:53:58.699Z,99382.66
2022-12-31T06:57:00.422Z,99373.72
2022-12-31T07:00:02.339Z,99367.47
2022-12-31T07:03:23.045Z,99374.53
2022-12-31T07:06:33.352Z,99369.13
2022-12-31T07:09:40.160Z,99366.63
2022-12-31T07:13:06.341Z,99379.13
2022-12-31T07:16:10.969Z,99373.72
2022-12-31T07:20:09.854Z,99354.75
2022-12-31T07:23:11.585Z,99370.34
2022-12-31T07:26:13.032Z,99364.91
2022-12-31T07:29:20.326Z,99373.25
2022-12-31T07:32:59.371Z,99387.41
2022-12-31T07:36:00.760Z,99376.78
2022-12-31T07:39:22.796Z,99397.41
2022-12-31T07:42:32.538Z,99381.16
2022-12-31T07:45:46.623Z,99406.38
2022-12-31T07:48:48.283Z,99429.91
2022-12-31T07:51:50.036Z,99450.56
2022-12-31T07:54:51.606Z,99457.66
2022-12-31T07:58:07.298Z,99461.88
2022-12-31T08:01:12.460Z,99475.25
2022-12-31T08:04:26.246Z,99468.63
2022-12-31T08:07:51.694Z,99469.94
2022-12-31T08:11:15.119Z,99467.06
2022-12-31T08:14:18.604Z,99482.28
2022-12-31T08:17:20.460Z,99498.38
2022-12-31T08:20:22.362Z,99511.72
2022-12-31T08:23:39.153Z,99523.06
2022-12-31T08:26:53.228Z,99516.81
2022-12-31T08:30:08.566Z,99506.63
2022-12-31T08:33:28.425Z,99517.13
2022-12-31T08:36:41.535Z,99499.00
2022-12-31T08:40:12.864Z,99509.84
2022-12-31T08:43:23.325Z,99505.09
2022-12-31T08:46:50.392Z,99495.94
2022-12-31T08:49:52.064Z,99506.75
2022-12-31T08:52:54.110Z,99515.72
2022-12-31T08:56:05.146Z,99516.41
2022-12-31T08:59:12.380Z,99511.81
2022-12-31T09:02:46.204Z,99501.81
2022-12-31T09:05:57.109Z,99496.59
2022-12-31T09:09:24.132Z,99504.38
2022-12-31T09:12:36.142Z,99509.94
2022-12-31T09:15:52.775Z,99506.22
2022-12-31T09:18:54.230Z,99506.59
2022-12-31T09:21:56.199Z,99517.22
2022-12-31T09:24:58.025Z,99503.69
2022-12-31T09:28:14.428Z,99506.22
2022-12-31T09:31:17.673Z,99510.81
2022-12-31T09:34:22.133Z,99505.41
2022-12-31T09:37:35.723Z,99502.84
2022-12-31T09:40:58.773Z,99495.41
2022-12-31T09:44:03.240Z,99501.66
2022-12-31T09:47:23.454Z,99508.75
2022-12-31T09:50:40.154Z,99507.75
2022-12-31T09:53:54.009Z,99509.25
2022-12-31T09:57:23.461Z,99511.97
2022-12-31T10:00:36.210Z,99499.25
2022-12-31T10:03:52.569Z,99503.00
2022-12-31T10:07:28.269Z,99487.75
2022-12-31T10:10:33.170Z,99485.72
2022-12-31T10:13:49.199Z,99489.94
2022-12-31T10:17:03.402Z,99495.19
2022-12-31T10:20:45.070Z,99495.66
2022-12-31T10:24:23.386Z,99473.97
2022-12-31T10:27:44.771Z,99482.09
2022-12-31T10:31:04.644Z,99467.53
2022-12-31T10:34:20.215Z,99491.75
2022-12-31T10:37:32.712Z,99498.00
2022-12-31T10:40:55.734Z,99502.41
2022-12-31T10:44:00.239Z,99478.03
2022-12-31T10:47:53.230Z,99488.88
2022-12-31T10:51:20.726Z,99496.78
2022-12-31T10:54:49.745Z,99491.22
2022-12-31T10:58:06.133Z,99491.00
2022-12-31T11:01:18.721Z,99500.84
2022-12-31T11:04:57.652Z,99514.19
2022-12-31T11:08:14.287Z,99517.09
2022-12-31T11:11:37.178Z,99529.47
2022-12-31T11:15:00.180Z,99531.13
2022-12-31T11:18:07.719Z,99539.25
2022-12-31T11:21:28.202Z,99567.41
2022-12-31T11:24:56.569Z,99577.41
2022-12-31T11:28:25.935Z,99587.88
2022-12-31T11:31:53.626Z,99593.31
2022-12-31T11:35:32.742Z,99583.31
2022-12-31T11:38:43.371Z,99596.50
2022-12-31T11:42:01.060Z,99590.91
2022-12-31T11:45:02.877Z,99584.66
2022-12-31T11:48:34.950Z,99590.53
2022-12-31T11:52:06.857Z,99590.38
2022-12-31T11:55:24.167Z,99592.41
2022-12-31T11:58:28.580Z,99592.41
2022-12-31T12:01:54.337Z,99602.91
2022-12-31T12:05:03.703Z,99587.66
2022-12-31T12:08:11.217Z,99583.91
2022-12-31T12:11:23.908Z,99566.81
2022-12-31T12:14:31.143Z,99566.63
2022-12-31T12:17:34.269Z,99574.75
2022-12-31T12:20:38.114Z,99562.91
2022-12-31T12:23:40.462Z,99567.50
2022-12-31T12:26:44.381Z,99555.59
2022-12-31T12:29:47.354Z,99550.19
2022-12-31T12:33:01.511Z,99557.13
2022-12-31T12:36:11.717Z,99552.53
2022-12-31T12:39:22.460Z,99549.66
2022-12-31T12:42:23.990Z,99556.94
2022-12-31T12:45:30.075Z,99551.34
2022-12-31T12:48:40.947Z,99552.00
2022-12-31T12:52:19.526Z,99566.03
2022-12-31T12:56:02.918Z,99566.53
2022-12-31T12:59:27.560Z,99577.00
2022-12-31T13:02:41.497Z,99578.69
2022-12-31T13:06:19.382Z,99594.47
2022-12-31T13:09:29.979Z,99603.44
2022-12-31T13:13:22.122Z,99597.47
2022-12-31T13:16:22.398Z,99609.84
2022-12-31T13:19:41.905Z,99603.19
2022-12-31T13:22:54.647Z,99618.28
2022-12-31T13:26:08.975Z,99625.03
2022-12-31T13:29:18.933Z,99619.41
2022-12-31T13:32:32.433Z,99618.88
2022-12-31T13:35:43.560Z,99612.06
2022-12-31T13:38:53.274Z,99611.88
2022-12-31T13:42:05.289Z,99610.66
2022-12-31T13:45:16.618Z,99613.88
2022-12-31T13:48:26.386Z,99610.81
2022-12-31T13:51:49.623Z,99606.03
2022-12-31T13:55:10.247Z,99595.00
2022-12-31T13:58:39.831Z,99599.22
2022-12-31T14:02:06.501Z,99596.16
2022-12-31T14:05:13.802Z,99609.34
2022-12-31T14:08:15.934Z,99622.09
2022-12-31T14:11:54.597Z,99629.00
2022-12-31T14:15:13.816Z,99629.00
2022-12-31T14:18:39.406Z,99604.22
2022-12-31T14:22:01.844Z,99614.88
2022-12-31T14:25:14.309Z,99632.19
2022-12-31T14:28:21.426Z,99637.47
2022-12-31T14:31:39.270Z,99633.88
2022-12-31T14:35:01.909Z,99645.59
2022-12-31T14:38:24.985Z,99651.88
2022-12-31T14:41:29.508Z,99654.75
2022-12-31T14:45:03.460Z,99668.81
2022-12-31T14:48:28.590Z,99666.94
2022-12-31T14:51:30.591Z,99663.41
2022-12-31T14:54:37.357Z,99660.69
2022-12-31T14:58:09.694Z,99662.34
2022-12-31T15:01:18.921Z,99686.63
2022-12-31T15:04:42.606Z,99692.50
2022-12-31T15:08:04.282Z,99674.19
2022-12-31T15:11:05.667Z,99701.31
2022-12-31T15:14:37.566Z,99712.66
2022-12-31T15:17:45.720Z,99695.34
2022-12-31T15:21:20.701Z,99685.81
2022-12-31T15:24:24.943Z,99674.09
2022-12-31T15:27:26.340Z,99681.41
2022-12-31T15:30:39.477Z,99709.41
2022-12-31T15:33:55.127Z,99682.41
2022-12-31T15:36:59.790Z,99702.09
2022-12-31T15:40:29.485Z,99701.94
2022-12-31T15:43:40.786Z,99691.91
2022-12-31T15:46:43.210Z,99707.53
2022-12-31T15:49:46.574Z,99688.34
2022-12-31T15:53:03.557Z,99686.47
2022-12-31T15:56:07.377Z,99680.19
2022-12-31T15:59:14.379Z,99685.25
2022-12-31T16:02:23.225Z,99676.94
2022-12-31T16:05:27.076Z,99685.25
2022-12-31T16:08:31.482Z,99681.50
2022-12-31T16:11:41.510Z,99676.75
2022-12-31T16:14:46.175Z,99682.00
2022-12-31T16:18:02.173Z,99684.50
2022-12-31T16:21:04.154Z,99692.66
2022-12-31T16:24:25.872Z,99692.66
2022-12-31T16:27:29.964Z,99704.41
2022-12-31T16:30:33.765Z,99710.66
2022-12-31T16:33:35.821Z,99712.53
2022-12-31T16:36:37.370Z,99708.63
2022-12-31T16:39:57.711Z,99721.81
2022-12-31T16:43:00.117Z,99726.88
2022-12-31T16:46:25.494Z,99726.16
2022-12-31T16:49:30.389Z,99734.81
2022-12-31T16:52:40.779Z,99716.47
2022-12-31T16:55:42.286Z,99725.09
2022-12-31T16:58:47.925Z,99730.34
2022-12-31T17:01:50.346Z,99720.78
2022-12-31T17:04:56.048Z,99720.41
2022-12-31T17:07:58.248Z,99720.06
2022-12-31T17:11:03.267Z,99702.34
2022-12-31T17:14:07.769Z,99709.09
2022-12-31T17:17:19.920Z,99725.69
2022-12-31T17:20:29.112Z,99734.31
2022-12-31T17:23:34.370Z,99719.50
2022-12-31T17:26:38.003Z,99712.69
2022-12-31T17:29:39.557Z,99710.63
2022-12-31T17:32:42.639Z,99701.25
2022-12-31T17:35:45.205Z,99705.47
2022-12-31T17:38:46.767Z,99716.97
2022-12-31T17:41:51.044Z,99716.63
2022-12-31T17:44:56.683Z,99715.75
2022-12-31T17:47:59.741Z,99717.63
2022-12-31T17:51:01.998Z,99715.75
2022-12-31T17:54:12.231Z,99721.19
2022-12-31T17:57:27.743Z,99711.19
2022-12-31T18:00:29.365Z,99715.75
2022-12-31T18:03:30.834Z,99707.41
2022-12-31T18:06:32.270Z,99701.81
2022-12-31T18:09:33.725Z,99693.44
2022-12-31T18:12:36.185Z,99695.78
2022-12-31T18:15:37.633Z,99687.91
2022-12-31T18:18:40.890Z,99690.28
2022-12-31T18:21:44.579Z,99682.94
2022-12-31T18:24:47.731Z,99682.28
2022-12-31T18:27:50.718Z,99674.50
2022-12-31T18:30:52.748Z,99674.91
2022-12-31T18:33:56.258Z,99677.78
2022-12-31T18:36:57.837Z,99669.81
2022-12-31T18:39:59.299Z,99675.25
2022-12-31T18:43:04.982Z,99669.34
2022-12-31T18:46:12.305Z,99669.53
2022-12-31T18:49:13.797Z,99676.41
2022-12-31T18:52:21.543Z,99680.13
2022-12-31T18:55:33.565Z,99679.50
2022-12-31T18:58:35.089Z,99677.34
2022-12-31T19:01:40.915Z,99669.34
2022-12-31T19:04:42.519Z,99673.50
2022-12-31T19:07:44.024Z,99680.16
2022-12-31T19:10:46.370Z,99684.25
2022-12-31T19:13:48.750Z,99672.94
2022-12-31T19:16:52.505Z,99686.88
2022-12-31T19:19:54.084Z,99661.13
2022-12-31T19:22:56.218Z,99668.59
2022-12-31T19:25:57.677Z,99676.09
2022-12-31T19:28:59.111Z,99679.00
2022-12-31T19:32:02.223Z,99684.44
2022-12-31T19:35:04.112Z,99684.44
2022-12-31T19:38:11.831Z,99697.00
2022-12-31T19:41:18.788Z,99704.97
2022-12-31T19:44:20.322Z,99698.66
2022-12-31T19:47:21.881Z,99695.31
2022-12-31T19:50:26.453Z,99710.41
2022-12-31T19:53:28.555Z,99723.13
2022-12-31T19:56:30.070Z,99711.41
2022-12-31T19:59:31.529Z,99697.81
2022-12-31T20:02:33.189Z,99685.06
2022-12-31T20:05:34.860Z,99705.97
2022-12-31T20:08:38.490Z,99688.47
2022-12-31T20:11:40.140Z,99703.94
2022-12-31T20:14:41.666Z,99702.88
2022-12-31T20:17:43.319Z,99713.59
2022-12-31T20:20:53.547Z,99704.38
2022-12-31T20:23:57.150Z,99717.13
2022-12-31T20:26:58.718Z,99722.56
2022-12-31T20:30:00.342Z,99718.84
2022-12-31T20:33:01.814Z,99721.72
2022-12-31T20:36:08.859Z,99716.97
2022-12-31T20:39:10.615Z,99718.84
2022-12-31T20:42:12.131Z,99727.84
2022-12-31T20:45:13.617Z,99736.16
2022-12-31T20:48:15.091Z,99747.03
2022-12-31T20:51:20.501Z,99740.75
2022-12-31T20:54:22.060Z,99742.63
2022-12-31T20:57:24.416Z,99743.66
2022-12-31T21:00:28.096Z,99738.22
2022-12-31T21:04:03.678Z,99754.50
2022-12-31T21:06:52.180Z,99747.22
2022-12-31T21:09:53.658Z,99769.81
2022-12-31T21:12:55.140Z,99759.59
2022-12-31T21:15:56.714Z,99771.31
2022-12-31T21:18:58.675Z,99755.00
2022-12-31T21:22:00.170Z,99779.25
2022-12-31T21:25:02.512Z,99775.72
2022-12-31T21:28:04.037Z,99774.88
2022-12-31T21:31:07.372Z,99773.00
2022-12-31T21:34:09.582Z,99774.03
2022-12-31T21:37:11.098Z,99775.03
2022-12-31T21:40:12.573Z,99756.22
2022-12-31T21:43:15.276Z,99763.34
2022-12-31T21:46:16.737Z,99785.28
2022-12-31T21:49:18.199Z,99775.25
2022-12-31T21:52:30.462Z,99778.97
2022-12-31T21:55:50.677Z,99809.91
2022-12-31T21:59:14.221Z,99793.44
2022-12-31T22:02:34.246Z,99793.44
2022-12-31T22:05:36.482Z,99789.00
2022-12-31T22:08:40.051Z,99775.41
2022-12-31T22:11:41.622Z,99789.22
2022-12-31T22:15:15.120Z,99806.50
2022-12-31T22:18:04.569Z,99787.50
2022-12-31T22:21:12.272Z,99794.63
2022-12-31T22:24:19.153Z,99808.41
2022-12-31T22:27:28.830Z,99821.16
2022-12-31T22:30:31.779Z,99807.56
2022-12-31T22:33:33.404Z,99835.75
2022-12-31T22:36:35.005Z,99819.44
2022-12-31T22:39:43.672Z,99834.06
2022-12-31T22:42:46.036Z,99844.94
2022-12-31T22:45:47.522Z,99840.53
2022-12-31T22:48:50.292Z,99833.22
2022-12-31T22:51:55.169Z,99832.56
2022-12-31T22:54:59.010Z,99855.13
2022-12-31T22:58:00.500Z,99848.84
2022-12-31T23:01:07.118Z,99858.69
2022-12-31T23:04:08.825Z,99861.59
2022-12-31T23:07:10.429Z,99854.28
2022-12-31T23:10:30.438Z,99858.69
2022-12-31T23:14:01.036Z,99855.78
2022-12-31T23:17:30.172Z,99863.28
2022-12-31T23:20:51.801Z,99878.06
2022-12-31T23:23:53.711Z,99870.75
2022-12-31T23:26:56.898Z,99883.50
2022-12-31T23:29:58.393Z,99868.25
2022-12-31T23:33:00.091Z,99870.13
2022-12-31T23:36:05.724Z,99866.38
2022-12-31T23:39:07.516Z,99860.47
2022-12-31T23:42:08.987Z,99867.72
2022-12-31T23:45:10.580Z,99857.75
2022-12-31T23:48:11.999Z,99851.44
2022-12-31T23:51:13.555Z,99853.31
2022-12-31T23:54:15.797Z,99857.75
2022-12-31T23:57:17.364Z,99853.50
